Time;durP1;ratioP1;P1;durP2;ratioP2;P2;SDS_P1;SDS_P2;PMS_P1;PMS_P2;Temp;Humidity;BMP_temperature;BMP_pressure;BME280_temperature;BME280_humidity;BME280_pressure;Samples;Min_cycle;Max_cycle;Signal;HPM_P1;HPM_P2
2020/12/14 00:02:14;;;;;;;6.47;3.73;;;;;;;;;;4968933;28;20034;-77
2020/12/14 00:04:40;;;;;;;6.47;3.63;;;;;;;;;;4951315;28;20039;-78
2020/12/14 00:07:06;;;;;;;6.33;3.90;;;;;;;;;;4959978;28;20200;-77
2020/12/14 00:09:33;;;;;;;10.13;4.53;;;;;;;;;;4966743;28;20553;-76
2020/12/14 00:11:59;;;;;;;7.33;4.20;;;;;;;;;;4970556;28;20039;-77
2020/12/14 00:14:25;;;;;;;7.57;4.00;;;;;;;;;;4969713;28;20113;-77
2020/12/14 00:16:51;;;;;;;6.63;3.90;;;;;;;;;;4966470;28;20089;-78
2020/12/14 00:19:18;;;;;;;6.30;3.97;;;;;;;;;;4957542;28;20038;-77
2020/12/14 00:21:44;;;;;;;6.10;3.57;;;;;;;;;;4963414;28;20670;-77
2020/12/14 00:24:10;;;;;;;6.30;3.60;;;;;;;;;;4978997;28;20045;-77
2020/12/14 00:26:36;;;;;;;6.17;3.70;;;;;;;;;;4959185;28;20434;-77
2020/12/14 00:29:02;;;;;;;6.83;4.07;;;;;;;;;;4965153;28;20279;-77
2020/12/14 00:31:28;;;;;;;6.00;3.60;;;;;;;;;;4951881;28;20376;-77
2020/12/14 00:33:54;;;;;;;6.13;3.60;;;;;;;;;;4966006;28;20043;-76
2020/12/14 00:36:20;;;;;;;6.67;3.77;;;;;;;;;;4950638;28;20039;-77
2020/12/14 00:38:46;;;;;;;6.27;3.90;;;;;;;;;;4953177;28;20317;-77
2020/12/14 00:41:19;;;;;;;8.03;5.00;;;;;;;;;;4956979;28;20023;-78
2020/12/14 00:43:47;;;;;;;7.15;4.35;;;;;;;;;;4965438;28;20033;-77
2020/12/14 00:46:13;;;;;;;6.90;4.40;;;;;;;;;;4957543;28;20019;-78
2020/12/14 00:48:40;;;;;;;8.33;4.97;;;;;;;;;;4964745;28;20034;-77
2020/12/14 00:51:06;;;;;;;9.93;4.63;;;;;;;;;;4963074;28;20325;-77
2020/12/14 00:53:32;;;;;;;8.60;4.93;;;;;;;;;;4964889;28;20322;-77
2020/12/14 00:56:01;;;;;;;7.60;4.67;;;;;;;;;;4972606;28;20035;-77
2020/12/14 00:58:27;;;;;;;9.07;5.13;;;;;;;;;;4962754;28;20381;-78
2020/12/14 01:00:53;;;;;;;8.10;4.90;;;;;;;;;;4962540;28;20035;-77
2020/12/14 01:03:20;;;;;;;8.27;5.37;;;;;;;;;;4958331;28;20366;-77
2020/12/14 01:05:46;;;;;;;8.80;4.97;;;;;;;;;;4963546;28;20312;-76
2020/12/14 01:08:12;;;;;;;9.03;5.27;;;;;;;;;;4967386;28;20302;-77
2020/12/14 01:10:38;;;;;;;7.77;4.90;;;;;;;;;;4960484;28;20267;-76
2020/12/14 01:13:04;;;;;;;9.00;5.30;;;;;;;;;;4957830;28;20278;-77
2020/12/14 01:15:30;;;;;;;7.77;4.53;;;;;;;;;;4953370;28;20275;-77
2020/12/14 01:17:56;;;;;;;8.67;5.20;;;;;;;;;;4961200;28;20277;-77
2020/12/14 01:20:22;;;;;;;8.80;5.03;;;;;;;;;;4962992;28;20320;-77
2020/12/14 01:22:48;;;;;;;8.27;5.03;;;;;;;;;;4955268;28;20825;-77
2020/12/14 01:25:14;;;;;;;9.27;4.93;;;;;;;;;;4955259;28;20297;-78
2020/12/14 01:27:40;;;;;;;8.13;4.90;;;;;;;;;;4954165;28;20271;-77
2020/12/14 01:30:06;;;;;;;8.97;4.87;;;;;;;;;;4948435;28;20259;-78
2020/12/14 01:32:32;;;;;;;10.23;5.77;;;;;;;;;;4967375;28;20273;-76
2020/12/14 01:34:58;;;;;;;9.20;5.73;;;;;;;;;;4969206;28;20265;-77
2020/12/14 01:37:24;;;;;;;10.03;5.73;;;;;;;;;;4975225;28;20637;-78
2020/12/14 01:39:50;;;;;;;8.43;5.13;;;;;;;;;;4953087;28;20340;-78
2020/12/14 01:42:16;;;;;;;10.00;5.67;;;;;;;;;;4966655;28;20273;-76
2020/12/14 01:44:42;;;;;;;10.03;5.90;;;;;;;;;;4948411;28;20287;-77
2020/12/14 01:47:09;;;;;;;9.57;5.57;;;;;;;;;;4976117;28;20274;-77
2020/12/14 01:49:35;;;;;;;8.47;5.23;;;;;;;;;;4965994;28;20284;-76
2020/12/14 01:52:01;;;;;;;8.73;5.27;;;;;;;;;;4963875;28;20270;-77
2020/12/14 01:54:30;;;;;;;8.93;5.60;;;;;;;;;;4967851;28;20278;-77
2020/12/14 01:56:57;;;;;;;9.17;5.37;;;;;;;;;;4964213;28;20273;-77
2020/12/14 01:59:23;;;;;;;9.70;5.30;;;;;;;;;;4961151;28;20362;-77
2020/12/14 02:01:50;;;;;;;10.47;6.13;;;;;;;;;;4953964;28;20278;-77
2020/12/14 02:04:17;;;;;;;9.73;5.33;;;;;;;;;;4962728;28;20377;-77
2020/12/14 02:06:43;;;;;;;11.17;6.27;;;;;;;;;;4961694;28;20262;-77
2020/12/14 02:09:09;;;;;;;9.93;5.63;;;;;;;;;;4966245;28;20275;-77
2020/12/14 02:11:35;;;;;;;9.13;5.80;;;;;;;;;;4964895;28;20302;-77
2020/12/14 02:14:01;;;;;;;8.50;5.03;;;;;;;;;;4952545;28;20789;-77
2020/12/14 02:16:27;;;;;;;9.37;5.47;;;;;;;;;;4955759;28;20780;-78
2020/12/14 02:18:54;;;;;;;8.57;5.27;;;;;;;;;;4960268;28;20365;-77
2020/12/14 02:21:20;;;;;;;11.13;5.50;;;;;;;;;;4957385;28;20299;-77
2020/12/14 02:23:46;;;;;;;10.40;6.10;;;;;;;;;;4963665;28;20764;-77
2020/12/14 02:26:12;;;;;;;9.70;6.33;;;;;;;;;;4965273;28;20612;-80
2020/12/14 02:28:38;;;;;;;9.23;5.70;;;;;;;;;;4966174;28;20282;-77
2020/12/14 02:31:04;;;;;;;10.77;6.10;;;;;;;;;;4954825;28;20266;-77
2020/12/14 02:33:31;;;;;;;10.37;6.07;;;;;;;;;;4966325;28;20770;-76
2020/12/14 02:35:57;;;;;;;10.37;6.50;;;;;;;;;;4965603;28;20278;-77
2020/12/14 02:38:23;;;;;;;9.77;6.00;;;;;;;;;;4966088;28;20271;-77
2020/12/14 02:40:50;;;;;;;10.93;6.57;;;;;;;;;;4966757;28;20274;-77
2020/12/14 02:43:16;;;;;;;11.47;7.00;;;;;;;;;;4968965;28;20270;-77
2020/12/14 02:45:42;;;;;;;8.97;5.73;;;;;;;;;;4962901;28;20849;-77
2020/12/14 02:48:08;;;;;;;10.23;6.10;;;;;;;;;;4958876;28;20364;-76
2020/12/14 02:50:35;;;;;;;9.63;5.40;;;;;;;;;;4960697;28;20271;-77
2020/12/14 02:53:02;;;;;;;11.70;6.47;;;;;;;;;;4969802;28;20688;-76
2020/12/14 02:55:28;;;;;;;9.37;5.70;;;;;;;;;;4961524;28;20654;-77
2020/12/14 02:57:54;;;;;;;8.50;5.17;;;;;;;;;;4969405;28;20369;-77
2020/12/14 03:00:20;;;;;;;10.53;5.30;;;;;;;;;;4969037;28;20267;-77
2020/12/14 03:02:47;;;;;;;10.40;5.33;;;;;;;;;;4966783;28;20278;-77
2020/12/14 03:05:13;;;;;;;8.23;5.07;;;;;;;;;;4960799;28;20381;-77
2020/12/14 03:07:40;;;;;;;10.20;5.20;;;;;;;;;;4952353;28;20330;-76
2020/12/14 03:10:06;;;;;;;8.00;4.57;;;;;;;;;;4964226;28;20262;-77
2020/12/14 03:12:32;;;;;;;8.20;4.57;;;;;;;;;;4970073;28;20282;-77
2020/12/14 03:14:59;;;;;;;9.23;5.37;;;;;;;;;;4968039;28;20267;-76
2020/12/14 03:17:29;;;;;;;10.17;5.70;;;;;;;;;;4959457;28;20407;-77
2020/12/14 03:19:55;;;;;;;9.80;5.70;;;;;;;;;;4965446;28;20286;-77
2020/12/14 03:22:21;;;;;;;9.90;5.77;;;;;;;;;;4959633;28;20710;-77
2020/12/14 03:24:47;;;;;;;9.33;5.43;;;;;;;;;;4970770;28;20843;-76
2020/12/14 03:27:13;;;;;;;9.23;5.67;;;;;;;;;;4963151;28;20267;-76
2020/12/14 03:29:40;;;;;;;8.77;5.50;;;;;;;;;;4962250;28;20392;-76
2020/12/14 03:32:06;;;;;;;10.13;5.90;;;;;;;;;;4959667;28;20267;-77
2020/12/14 03:34:32;;;;;;;11.97;6.50;;;;;;;;;;4954686;28;20325;-77
2020/12/14 03:36:58;;;;;;;11.63;6.63;;;;;;;;;;4962651;28;20753;-76
2020/12/14 03:39:24;;;;;;;12.67;6.83;;;;;;;;;;4965023;28;20266;-75
2020/12/14 03:41:51;;;;;;;9.87;5.57;;;;;;;;;;4963481;28;20270;-77
2020/12/14 03:44:17;;;;;;;11.20;7.00;;;;;;;;;;4969719;28;20316;-77
2020/12/14 03:46:43;;;;;;;8.67;5.77;;;;;;;;;;4960231;28;20745;-77
2020/12/14 03:49:12;;;;;;;10.07;5.67;;;;;;;;;;4952402;28;20270;-77
2020/12/14 03:51:38;;;;;;;9.37;5.97;;;;;;;;;;4957038;28;20263;-76
2020/12/14 03:54:04;;;;;;;8.83;4.67;;;;;;;;;;4955403;28;20365;-77
2020/12/14 03:56:30;;;;;;;6.53;3.40;;;;;;;;;;4976337;28;20821;-77
2020/12/14 03:59:00;;;;;;;6.67;2.70;;;;;;;;;;4989073;28;20272;-77
2020/12/14 04:01:26;;;;;;;4.87;2.73;;;;;;;;;;4979627;28;20269;-76
2020/12/14 04:03:53;;;;;;;6.20;3.13;;;;;;;;;;4981166;28;20276;-77
2020/12/14 04:06:29;;;;;;;5.33;3.10;;;;;;;;;;4985246;28;20300;-77
2020/12/14 04:08:55;;;;;;;6.60;3.50;;;;;;;;;;4980624;28;20290;-77
2020/12/14 04:11:21;;;;;;;5.93;3.50;;;;;;;;;;4968623;28;20290;-77
2020/12/14 04:13:48;;;;;;;6.90;4.03;;;;;;;;;;4956501;28;20821;-77
2020/12/14 04:16:14;;;;;;;8.57;4.60;;;;;;;;;;4966641;28;20297;-76
2020/12/14 04:18:40;;;;;;;7.30;4.17;;;;;;;;;;4965447;28;20290;-77
2020/12/14 04:21:08;;;;;;;14.67;8.43;;;;;;;;;;4959573;28;20270;-78
2020/12/14 04:23:34;;;;;;;13.73;8.83;;;;;;;;;;4953871;28;20773;-77
2020/12/14 04:26:00;;;;;;;12.57;8.43;;;;;;;;;;4967620;28;20286;-77
2020/12/14 04:28:26;;;;;;;21.13;11.23;;;;;;;;;;4956695;28;20329;-77
2020/12/14 04:30:52;;;;;;;22.97;12.00;;;;;;;;;;4975271;28;20263;-77
2020/12/14 04:33:18;;;;;;;14.47;8.37;;;;;;;;;;4950970;28;20267;-77
2020/12/14 04:35:45;;;;;;;16.60;11.73;;;;;;;;;;4964080;28;20270;-77
2020/12/14 04:38:11;;;;;;;11.30;6.10;;;;;;;;;;4969605;28;20286;-77
2020/12/14 04:40:37;;;;;;;11.43;7.03;;;;;;;;;;4960740;28;20310;-77
2020/12/14 04:43:03;;;;;;;21.47;11.50;;;;;;;;;;4961245;28;20350;-77
2020/12/14 04:45:29;;;;;;;37.07;19.03;;;;;;;;;;4961318;28;20393;-77
2020/12/14 04:47:56;;;;;;;20.73;10.57;;;;;;;;;;4964890;28;20840;-77
2020/12/14 04:50:23;;;;;;;22.60;12.83;;;;;;;;;;4965465;28;20290;-77
2020/12/14 04:52:51;;;;;;;19.60;11.70;;;;;;;;;;4963967;28;20284;-77
2020/12/14 04:55:21;;;;;;;17.40;9.67;;;;;;;;;;4966181;28;20322;-77
2020/12/14 04:57:47;;;;;;;16.47;10.37;;;;;;;;;;4962183;28;20274;-77
2020/12/14 05:00:13;;;;;;;16.73;10.47;;;;;;;;;;4961908;28;20943;-77
2020/12/14 05:02:41;;;;;;;18.80;10.90;;;;;;;;;;4980335;28;20298;-76
2020/12/14 05:05:10;;;;;;;25.97;13.87;;;;;;;;;;4969728;28;20709;-77
2020/12/14 05:07:43;;;;;;;17.83;11.37;;;;;;;;;;4960622;28;20273;-77
2020/12/14 05:10:10;;;;;;;17.35;11.45;;;;;;;;;;4967538;28;20759;-77
2020/12/14 05:12:42;;;;;;;24.43;14.20;;;;;;;;;;4960314;28;20027;-76
2020/12/14 05:15:18;;;;;;;18.20;11.27;;;;;;;;;;4966060;28;20781;-77
2020/12/14 05:17:44;;;;;;;16.93;10.73;;;;;;;;;;4964678;28;20262;-77
2020/12/14 05:20:14;;;;;;;13.83;9.47;;;;;;;;;;4950534;28;20283;-77
2020/12/14 05:22:54;;;;;;;15.37;10.53;;;;;;;;;;4968866;28;20262;-77
2020/12/14 05:25:20;;;;;;;17.27;10.80;;;;;;;;;;4981781;28;20316;-77
2020/12/14 05:27:46;;;;;;;17.87;11.00;;;;;;;;;;4959599;28;20270;-77
2020/12/14 05:30:15;;;;;;;19.83;12.07;;;;;;;;;;4964505;28;20254;-77
2020/12/14 05:32:41;;;;;;;16.80;11.13;;;;;;;;;;4964821;28;20263;-77
2020/12/14 05:35:11;;;;;;;18.60;10.83;;;;;;;;;;4958414;28;20273;-77
2020/12/14 05:37:38;;;;;;;18.97;12.03;;;;;;;;;;4966719;28;20269;-77
2020/12/14 05:40:13;;;;;;;21.77;12.60;;;;;;;;;;4964358;28;21686;-77
2020/12/14 05:42:42;;;;;;;19.93;12.37;;;;;;;;;;4981057;28;20274;-77
2020/12/14 05:45:12;;;;;;;20.30;12.77;;;;;;;;;;4977380;28;20294;-77
2020/12/14 05:47:41;;;;;;;19.87;12.73;;;;;;;;;;4970862;28;20398;-77
2020/12/14 05:50:09;;;;;;;20.20;12.97;;;;;;;;;;4953705;28;20271;-77
2020/12/14 05:52:36;;;;;;;22.50;14.33;;;;;;;;;;4978286;28;20812;-77
2020/12/14 05:55:03;;;;;;;28.97;17.30;;;;;;;;;;4972808;28;20403;-77
2020/12/14 05:57:29;;;;;;;32.53;17.47;;;;;;;;;;4968999;28;20273;-78
2020/12/14 05:59:59;;;;;;;34.93;19.63;;;;;;;;;;4967713;28;20286;-77
2020/12/14 06:02:26;;;;;;;37.83;20.10;;;;;;;;;;4968789;28;20273;-76
2020/12/14 06:04:57;;;;;;;25.13;15.07;;;;;;;;;;4970128;28;20382;-77
2020/12/14 06:07:27;;;;;;;23.70;14.20;;;;;;;;;;4959119;28;20282;-77
2020/12/14 06:10:12;;;;;;;23.13;15.27;;;;;;;;;;4962410;28;20338;-77
2020/12/14 06:12:41;;;;;;;23.87;13.83;;;;;;;;;;4957399;28;20262;-77
2020/12/14 06:15:08;;;;;;;26.23;15.17;;;;;;;;;;4968975;28;20271;-78
2020/12/14 06:17:35;;;;;;;25.50;15.50;;;;;;;;;;4992411;28;20270;-78
2020/12/14 06:20:18;;;;;;;22.60;14.33;;;;;;;;;;4983639;28;20984;-77
2020/12/14 06:22:46;;;;;;;22.13;13.83;;;;;;;;;;4980106;28;20262;-78
2020/12/14 06:25:12;;;;;;;24.43;16.10;;;;;;;;;;4976591;28;20316;-79
2020/12/14 06:27:38;;;;;;;23.00;14.83;;;;;;;;;;4981572;28;20255;-78
2020/12/14 06:30:23;;;;;;;22.37;14.67;;;;;;;;;;4959345;28;20254;-77
2020/12/14 06:32:58;;;;;;;25.33;14.57;;;;;;;;;;4964348;28;20259;-79
2020/12/14 06:35:41;;;;;;;24.60;14.47;;;;;;;;;;4971061;28;20766;-78
2020/12/14 06:38:07;;;;;;;15.57;10.35;;;;;;;;;;4973212;28;20262;-79
2020/12/14 06:40:52;;;;;;;25.77;16.33;;;;;;;;;;4971982;28;20103;-78
2020/12/14 06:43:34;;;;;;;27.70;15.73;;;;;;;;;;4966504;28;20255;-78
2020/12/14 06:46:04;;;;;;;23.83;14.60;;;;;;;;;;4957359;28;20318;-78
2020/12/14 06:48:40;;;;;;;27.10;15.33;;;;;;;;;;4959393;28;20274;-77
2020/12/14 06:51:08;;;;;;;27.40;15.03;;;;;;;;;;4972029;28;20257;-77
2020/12/14 06:53:38;;;;;;;25.10;16.00;;;;;;;;;;4957076;28;20274;-78
2020/12/14 06:56:04;;;;;;;26.33;16.37;;;;;;;;;;4969950;28;20638;-77
2020/12/14 06:58:35;;;;;;;28.83;16.47;;;;;;;;;;4976122;28;20266;-77
2020/12/14 07:01:01;;;;;;;25.37;14.67;;;;;;;;;;4979098;28;20329;-77
2020/12/14 07:03:37;;;;;;;27.23;16.03;;;;;;;;;;4967978;28;20283;-77
2020/12/14 07:06:07;;;;;;;26.60;15.23;;;;;;;;;;4977988;28;20295;-78
2020/12/14 07:08:38;;;;;;;25.00;15.33;;;;;;;;;;4982153;28;21069;-78
2020/12/14 07:11:12;;;;;;;24.87;14.50;;;;;;;;;;4968158;28;20832;-77
2020/12/14 07:13:38;;;;;;;25.50;15.38;;;;;;;;;;4972774;28;20287;-77
2020/12/14 07:16:08;;;;;;;23.27;14.93;;;;;;;;;;4966572;28;20049;-77
2020/12/14 07:18:35;;;;;;;24.23;14.07;;;;;;;;;;4965655;28;20278;-77
2020/12/14 07:21:07;;;;;;;23.87;14.17;;;;;;;;;;4962934;28;20286;-77
2020/12/14 07:23:34;;;;;;;19.90;12.93;;;;;;;;;;4970171;28;20295;-76
2020/12/14 07:26:01;;;;;;;21.73;13.30;;;;;;;;;;4968198;28;20296;-77
2020/12/14 07:28:39;;;;;;;22.23;14.77;;;;;;;;;;4971387;28;20274;-76
2020/12/14 07:31:10;;;;;;;19.23;12.93;;;;;;;;;;4960507;28;20694;-78
2020/12/14 07:33:36;;;;;;;18.70;11.53;;;;;;;;;;4970020;28;20803;-77
2020/12/14 07:36:07;;;;;;;14.93;9.50;;;;;;;;;;4976411;28;20305;-76
2020/12/14 07:38:33;;;;;;;11.40;8.10;;;;;;;;;;4975445;28;20273;-77
2020/12/14 07:41:18;;;;;;;15.63;9.23;;;;;;;;;;4956242;28;20337;-78
2020/12/14 07:43:45;;;;;;;10.83;6.53;;;;;;;;;;4960507;28;20105;-76
2020/12/14 07:46:23;;;;;;;16.23;8.70;;;;;;;;;;4969385;28;20046;-77
2020/12/14 07:48:53;;;;;;;14.97;8.13;;;;;;;;;;4981132;28;20031;-76
2020/12/14 07:51:20;;;;;;;12.13;7.53;;;;;;;;;;4974011;28;20022;-77
2020/12/14 07:53:46;;;;;;;9.90;6.77;;;;;;;;;;4963620;28;20020;-77
2020/12/14 07:56:13;;;;;;;11.80;7.37;;;;;;;;;;4982315;28;20419;-78
2020/12/14 07:58:48;;;;;;;11.57;6.53;;;;;;;;;;4987186;28;20038;-77
2020/12/14 08:01:15;;;;;;;8.80;5.93;;;;;;;;;;4964418;28;20030;-77
2020/12/14 08:03:41;;;;;;;11.00;6.40;;;;;;;;;;4965487;28;20182;-77
2020/12/14 08:06:11;;;;;;;8.70;6.03;;;;;;;;;;4956619;28;20042;-77
2020/12/14 08:08:38;;;;;;;10.30;5.30;;;;;;;;;;4963866;28;20398;-78
2020/12/14 08:11:04;;;;;;;9.87;5.93;;;;;;;;;;4970496;28;20031;-78
2020/12/14 08:13:30;;;;;;;9.53;5.60;;;;;;;;;;4960237;28;20042;-79
2020/12/14 08:15:57;;;;;;;8.37;5.33;;;;;;;;;;4968022;28;20753;-78
2020/12/14 08:18:23;;;;;;;9.77;5.53;;;;;;;;;;4963154;28;20482;-79
2020/12/14 08:20:52;;;;;;;7.97;5.20;;;;;;;;;;4955957;28;20043;-80
2020/12/14 08:23:22;;;;;;;9.73;5.57;;;;;;;;;;4958413;28;20517;-79
2020/12/14 08:25:49;;;;;;;9.83;6.13;;;;;;;;;;4963810;28;20027;-78
2020/12/14 08:28:16;;;;;;;8.33;5.30;;;;;;;;;;4969844;28;20570;-78
2020/12/14 08:30:42;;;;;;;8.97;5.20;;;;;;;;;;4963082;28;20037;-80
2020/12/14 08:33:16;;;;;;;8.90;5.60;;;;;;;;;;4951874;28;20027;-79
2020/12/14 08:35:43;;;;;;;8.03;4.80;;;;;;;;;;4977747;28;20027;-80
2020/12/14 08:38:14;;;;;;;8.40;4.87;;;;;;;;;;4985700;28;20046;-79
2020/12/14 08:40:41;;;;;;;8.33;4.67;;;;;;;;;;4963780;28;20442;-79
2020/12/14 08:43:17;;;;;;;8.93;4.87;;;;;;;;;;4953081;28;20122;-77
2020/12/14 08:46:00;;;;;;;7.90;4.93;;;;;;;;;;4960067;28;20608;-78
2020/12/14 08:48:26;;;;;;;7.03;4.47;;;;;;;;;;4959695;28;20030;-78
2020/12/14 08:51:13;;;;;;;7.83;4.80;;;;;;;;;;4968005;28;20015;-79
2020/12/14 08:53:39;;;;;;;6.80;4.47;;;;;;;;;;4969012;28;20034;-79
2020/12/14 08:56:10;;;;;;;7.40;4.90;;;;;;;;;;4967249;28;20022;-78
2020/12/14 08:58:55;;;;;;;7.43;4.93;;;;;;;;;;4985764;28;20043;-78
2020/12/14 09:01:22;;;;;;;7.70;4.75;;;;;;;;;;4958279;28;20027;-79
2020/12/14 09:03:53;;;;;;;6.80;4.38;;;;;;;;;;4962563;28;20034;-78
2020/12/14 09:06:28;;;;;;;8.35;5.10;;;;;;;;;;4970224;28;20031;-80
2020/12/14 09:08:58;;;;;;;7.97;5.28;;;;;;;;;;4970243;28;20038;-79
2020/12/14 09:11:28;;;;;;;8.25;4.70;;;;;;;;;;4974529;28;20031;-80
2020/12/14 09:13:55;;;;;;;6.25;4.50;;;;;;;;;;4972613;28;20023;-80
2020/12/14 09:16:21;;;;;;;7.40;5.05;;;;;;;;;;4960022;28;20045;-80
2020/12/14 09:18:47;;;;;;;6.22;4.47;;;;;;;;;;4966692;28;20089;-79
2020/12/14 09:21:13;;;;;;;7.03;4.45;;;;;;;;;;4960922;28;20039;-81
2020/12/14 09:23:42;;;;;;;7.30;4.32;;;;;;;;;;4964592;28;20035;-81
2020/12/14 09:26:08;;;;;;;6.55;3.85;;;;;;;;;;4976692;28;20035;-78
2020/12/14 09:28:34;;;;;;;8.23;4.97;;;;;;;;;;4964931;28;20455;-79
2020/12/14 09:31:04;;;;;;;7.35;4.60;;;;;;;;;;4975502;28;20023;-78
2020/12/14 09:33:30;;;;;;;6.18;4.30;;;;;;;;;;4974946;28;20478;-79
2020/12/14 09:35:56;;;;;;;6.65;4.40;;;;;;;;;;4962908;28;20039;-79
2020/12/14 09:38:22;;;;;;;7.97;5.03;;;;;;;;;;4960841;28;20037;-80
2020/12/14 09:40:53;;;;;;;6.88;4.50;;;;;;;;;;4973792;28;20426;-79
2020/12/14 09:43:19;;;;;;;6.40;3.85;;;;;;;;;;4972512;28;20035;-79
2020/12/14 09:45:45;;;;;;;5.85;3.90;;;;;;;;;;4986250;28;20434;-78
2020/12/14 09:48:11;;;;;;;5.32;3.42;;;;;;;;;;4966620;28;20030;-79
2020/12/14 09:50:38;;;;;;;5.22;3.22;;;;;;;;;;4968909;28;20030;-78
2020/12/14 09:53:06;;;;;;;7.60;4.15;;;;;;;;;;4972604;28;20033;-79
2020/12/14 09:55:32;;;;;;;6.03;3.72;;;;;;;;;;4967790;28;20039;-78
2020/12/14 09:57:58;;;;;;;5.43;3.72;;;;;;;;;;4961428;28;20035;-78
2020/12/14 10:00:24;;;;;;;5.22;3.20;;;;;;;;;;4966704;28;20035;-79
2020/12/14 10:02:50;;;;;;;5.65;3.97;;;;;;;;;;4958659;28;20028;-79
2020/12/14 10:05:17;;;;;;;5.55;4.00;;;;;;;;;;4972344;28;20041;-79
2020/12/14 10:07:43;;;;;;;7.22;3.85;;;;;;;;;;4972180;28;20108;-78
2020/12/14 10:10:10;;;;;;;6.43;3.90;;;;;;;;;;4975829;28;20312;-80
2020/12/14 10:12:37;;;;;;;5.50;3.53;;;;;;;;;;4985146;28;20023;-79
2020/12/14 10:15:05;;;;;;;6.50;3.72;;;;;;;;;;4972208;28;20027;-79
2020/12/14 10:17:31;;;;;;;4.90;3.53;;;;;;;;;;4959786;28;20302;-79
2020/12/14 10:19:58;;;;;;;6.35;4.22;;;;;;;;;;4953724;28;20027;-78
2020/12/14 10:22:24;;;;;;;7.78;4.07;;;;;;;;;;4962877;28;20037;-77
2020/12/14 10:24:50;;;;;;;7.30;4.60;;;;;;;;;;4958854;28;20027;-79
2020/12/14 10:27:16;;;;;;;6.68;4.15;;;;;;;;;;4966970;28;20486;-81
2020/12/14 10:29:42;;;;;;;5.38;3.65;;;;;;;;;;4967181;28;20122;-79
2020/12/14 10:32:08;;;;;;;5.78;3.58;;;;;;;;;;4976660;28;20395;-80
2020/12/14 10:34:37;;;;;;;7.65;4.82;;;;;;;;;;4979659;28;20445;-79
2020/12/14 10:37:03;;;;;;;8.23;4.05;;;;;;;;;;4973070;28;20176;-79
2020/12/14 10:39:29;;;;;;;7.57;4.03;;;;;;;;;;4972327;28;20069;-79
2020/12/14 10:41:55;;;;;;;8.05;4.35;;;;;;;;;;4963685;28;20433;-79
2020/12/14 10:44:21;;;;;;;5.75;3.80;;;;;;;;;;4969620;28;20124;-79
2020/12/14 10:46:47;;;;;;;6.18;4.03;;;;;;;;;;4972774;28;20019;-79
2020/12/14 10:49:14;;;;;;;5.55;3.28;;;;;;;;;;4982203;28;20502;-78
2020/12/14 10:51:40;;;;;;;5.57;3.50;;;;;;;;;;4968056;28;20031;-79
2020/12/14 10:54:06;;;;;;;7.78;3.90;;;;;;;;;;4964359;28;20031;-79
2020/12/14 10:56:32;;;;;;;5.70;3.83;;;;;;;;;;4968395;28;20041;-79
2020/12/14 10:58:58;;;;;;;5.57;3.85;;;;;;;;;;4968942;28;20034;-78
2020/12/14 11:01:24;;;;;;;5.90;4.05;;;;;;;;;;4959671;28;20541;-78
2020/12/14 11:03:50;;;;;;;5.88;4.25;;;;;;;;;;4970971;28;20736;-78
2020/12/14 11:06:16;;;;;;;5.95;3.92;;;;;;;;;;4974802;28;20031;-78
2020/12/14 11:08:46;;;;;;;6.90;4.57;;;;;;;;;;4974037;28;20034;-79
2020/12/14 11:11:12;;;;;;;7.03;4.65;;;;;;;;;;4965167;28;20117;-78
2020/12/14 11:13:38;;;;;;;6.65;4.25;;;;;;;;;;4975529;28;20409;-78
2020/12/14 11:16:04;;;;;;;5.47;3.83;;;;;;;;;;4958332;28;20497;-79
2020/12/14 11:18:30;;;;;;;8.13;4.30;;;;;;;;;;4973808;28;20027;-79
2020/12/14 11:20:56;;;;;;;6.13;3.75;;;;;;;;;;4968351;28;20027;-79
2020/12/14 11:23:22;;;;;;;6.97;3.78;;;;;;;;;;4965990;28;20045;-78
2020/12/14 11:25:48;;;;;;;5.95;3.92;;;;;;;;;;4960408;28;20089;-78
2020/12/14 11:28:14;;;;;;;6.75;4.53;;;;;;;;;;4966448;28;20022;-78
2020/12/14 11:30:41;;;;;;;6.68;4.40;;;;;;;;;;4965185;28;20039;-79
2020/12/14 11:33:07;;;;;;;8.43;5.43;;;;;;;;;;4968273;28;20150;-78
2020/12/14 11:35:33;;;;;;;6.32;4.40;;;;;;;;;;4969541;28;20139;-78
2020/12/14 11:37:59;;;;;;;6.50;4.53;;;;;;;;;;4978876;28;20115;-78
2020/12/14 11:40:25;;;;;;;7.57;4.80;;;;;;;;;;4977228;28;20485;-79
2020/12/14 11:42:53;;;;;;;6.05;4.07;;;;;;;;;;4974296;28;20027;-79
2020/12/14 11:45:19;;;;;;;6.43;4.32;;;;;;;;;;4983864;28;20038;-78
2020/12/14 11:47:45;;;;;;;7.20;4.78;;;;;;;;;;4956644;28;20030;-79
2020/12/14 11:50:11;;;;;;;7.13;5.00;;;;;;;;;;4967920;28;20033;-79
2020/12/14 11:52:37;;;;;;;7.40;5.22;;;;;;;;;;4969061;28;20106;-78
2020/12/14 11:55:06;;;;;;;7.28;5.07;;;;;;;;;;4961543;28;20074;-79
2020/12/14 11:57:32;;;;;;;7.32;4.68;;;;;;;;;;4966712;28;20030;-79
2020/12/14 11:59:58;;;;;;;7.15;5.00;;;;;;;;;;4969649;28;20034;-78
2020/12/14 12:02:24;;;;;;;7.07;4.97;;;;;;;;;;4969546;28;20035;-78
2020/12/14 12:04:50;;;;;;;9.73;5.85;;;;;;;;;;4966666;28;20031;-77
2020/12/14 12:07:16;;;;;;;6.68;4.72;;;;;;;;;;4976608;28;20054;-77
2020/12/14 12:09:42;;;;;;;8.60;5.53;;;;;;;;;;4972286;28;20043;-76
2020/12/14 12:12:09;;;;;;;10.17;5.50;;;;;;;;;;4982224;28;20879;-78
2020/12/14 12:14:35;;;;;;;8.70;5.35;;;;;;;;;;4962732;28;20110;-76
2020/12/14 12:17:01;;;;;;;9.38;5.35;;;;;;;;;;4978514;28;20117;-78
2020/12/14 12:19:28;;;;;;;7.55;5.18;;;;;;;;;;4979303;28;20027;-78
2020/12/14 12:21:54;;;;;;;7.93;5.43;;;;;;;;;;4974122;28;20049;-79
2020/12/14 12:24:21;;;;;;;7.38;5.13;;;;;;;;;;4969712;28;20089;-78
2020/12/14 12:26:51;;;;;;;8.75;5.60;;;;;;;;;;4962572;28;20039;-78
2020/12/14 12:29:20;;;;;;;8.73;5.97;;;;;;;;;;4975893;28;20027;-78
2020/12/14 12:31:51;;;;;;;7.80;5.30;;;;;;;;;;4965427;28;20030;-77
2020/12/14 12:34:17;;;;;;;8.95;5.97;;;;;;;;;;4967271;28;20046;-78
2020/12/14 12:36:50;;;;;;;8.52;5.47;;;;;;;;;;4962404;28;20113;-78
2020/12/14 12:39:16;;;;;;;8.55;5.78;;;;;;;;;;4971349;28;20343;-79
2020/12/14 12:41:46;;;;;;;8.63;5.67;;;;;;;;;;4970550;28;20124;-78
2020/12/14 12:44:12;;;;;;;9.40;6.50;;;;;;;;;;4958935;28;20031;-77
2020/12/14 12:46:39;;;;;;;9.90;6.93;;;;;;;;;;4956797;28;20067;-78
2020/12/14 12:49:06;;;;;;;11.53;8.27;;;;;;;;;;4962041;28;20051;-77
2020/12/14 12:51:32;;;;;;;10.43;7.07;;;;;;;;;;4968658;28;20054;-78
2020/12/14 12:53:58;;;;;;;12.17;7.80;;;;;;;;;;4970395;28;20025;-79
2020/12/14 12:56:25;;;;;;;12.83;7.33;;;;;;;;;;4973293;28;20185;-79
2020/12/14 12:58:51;;;;;;;10.00;6.33;;;;;;;;;;4974664;28;20050;-79
2020/12/14 13:01:18;;;;;;;11.83;7.10;;;;;;;;;;4973621;28;20041;-79
2020/12/14 13:03:44;;;;;;;10.67;6.27;;;;;;;;;;4968639;28;20094;-79
2020/12/14 13:06:10;;;;;;;13.00;6.57;;;;;;;;;;4966964;28;20086;-79
2020/12/14 13:08:36;;;;;;;10.03;6.63;;;;;;;;;;4974945;28;20035;-80
2020/12/14 13:11:03;;;;;;;9.63;6.47;;;;;;;;;;4965344;28;20953;-79
2020/12/14 13:13:29;;;;;;;9.60;6.57;;;;;;;;;;4974547;28;20065;-79
2020/12/14 13:15:55;;;;;;;10.57;6.57;;;;;;;;;;4974804;28;20034;-78
2020/12/14 13:18:21;;;;;;;10.07;7.03;;;;;;;;;;4974369;28;20072;-78
2020/12/14 13:20:48;;;;;;;11.60;5.80;;;;;;;;;;4969648;28;20031;-77
2020/12/14 13:23:15;;;;;;;10.10;6.70;;;;;;;;;;4974706;28;20058;-77
2020/12/14 13:25:41;;;;;;;9.30;6.03;;;;;;;;;;4956867;28;20059;-78
2020/12/14 13:28:07;;;;;;;10.40;6.90;;;;;;;;;;4959542;28;20509;-79
2020/12/14 13:30:33;;;;;;;16.80;6.53;;;;;;;;;;4980140;28;20034;-78
2020/12/14 13:32:59;;;;;;;9.60;5.70;;;;;;;;;;4956846;28;20035;-79
2020/12/14 13:35:26;;;;;;;10.57;6.63;;;;;;;;;;4987283;28;20130;-78
2020/12/14 13:37:52;;;;;;;9.73;6.07;;;;;;;;;;4963123;28;20050;-78
2020/12/14 13:40:18;;;;;;;9.97;6.37;;;;;;;;;;4962129;28;20031;-79
2020/12/14 13:42:46;;;;;;;11.87;6.90;;;;;;;;;;4991091;28;20034;-79
2020/12/14 13:45:32;;;;;;;9.23;5.93;;;;;;;;;;4965814;28;20031;-77
2020/12/14 13:47:58;;;;;;;10.77;6.17;;;;;;;;;;4972281;28;20038;-77
2020/12/14 13:50:25;;;;;;;9.43;5.60;;;;;;;;;;4976902;28;20045;-78
2020/12/14 13:52:51;;;;;;;10.00;6.17;;;;;;;;;;4965561;28;20035;-77
2020/12/14 13:55:17;;;;;;;10.43;6.87;;;;;;;;;;4967259;28;20065;-78
2020/12/14 13:57:43;;;;;;;9.60;6.70;;;;;;;;;;4953325;28;20035;-78
2020/12/14 14:00:09;;;;;;;10.23;6.53;;;;;;;;;;4973727;28;20038;-78
2020/12/14 14:02:35;;;;;;;11.20;7.60;;;;;;;;;;4976324;28;20034;-79
2020/12/14 14:05:01;;;;;;;15.03;8.70;;;;;;;;;;4957303;28;20039;-79
2020/12/14 14:07:27;;;;;;;11.53;7.37;;;;;;;;;;4966841;28;20034;-79
2020/12/14 14:09:53;;;;;;;13.93;8.53;;;;;;;;;;4965479;28;20058;-79
2020/12/14 14:12:21;;;;;;;14.73;8.17;;;;;;;;;;4979234;28;20034;-78
2020/12/14 14:14:47;;;;;;;14.70;8.80;;;;;;;;;;4970852;28;20031;-79
2020/12/14 14:17:15;;;;;;;13.47;7.70;;;;;;;;;;4970314;28;20030;-79
2020/12/14 14:19:41;;;;;;;15.67;9.80;;;;;;;;;;4977197;28;20023;-78
2020/12/14 14:22:07;;;;;;;16.30;9.20;;;;;;;;;;4991506;28;20037;-78
2020/12/14 14:24:34;;;;;;;16.07;10.30;;;;;;;;;;4983985;28;20023;-78
2020/12/14 14:27:00;;;;;;;18.37;10.00;;;;;;;;;;4992097;28;20167;-78
2020/12/14 14:29:26;;;;;;;15.87;9.50;;;;;;;;;;4994078;28;20018;-78
2020/12/14 14:31:56;;;;;;;18.37;9.83;;;;;;;;;;4994068;28;20273;-79
2020/12/14 14:34:23;;;;;;;18.97;10.40;;;;;;;;;;5000022;28;20274;-78
2020/12/14 14:36:52;;;;;;;18.23;11.73;;;;;;;;;;4984678;28;20347;-77
2020/12/14 14:39:19;;;;;;;18.57;12.00;;;;;;;;;;4990588;28;20274;-77